Time;durP1;ratioP1;P1;durP2;ratioP2;P2;SDS_P1;SDS_P2;PMS_P1;PMS_P2;Temp;Humidity;BMP_temperature;BMP_pressure;BME280_temperature;BME280_humidity;BME280_pressure;Samples;Min_cycle;Max_cycle;Signal;HPM_P1;HPM_P2
2023/05/23 00:01:06;;;;;;;29.08;16.98;;;;;;;13.47;100.00;101609.00;4879865;29;20414;-77
2023/05/23 00:03:36;;;;;;;29.00;16.23;;;;;;;13.47;100.00;101614.28;4893014;29;20053;-77
2023/05/23 00:06:05;;;;;;;34.35;17.33;;;;;;;13.46;100.00;101608.13;4870755;29;20067;-77
2023/05/23 00:08:33;;;;;;;25.70;15.60;;;;;;;13.48;100.00;101610.75;4872750;29;20056;-77
2023/05/23 00:11:01;;;;;;;40.42;15.85;;;;;;;13.49;100.00;101613.41;4853740;29;20060;-77
2023/05/23 00:13:33;;;;;;;33.65;14.93;;;;;;;13.48;100.00;101606.34;4834696;29;20083;-77
2023/05/23 00:16:01;;;;;;;28.92;14.20;;;;;;;13.48;100.00;101616.03;4875924;29;20078;-77
2023/05/23 00:18:29;;;;;;;40.55;14.07;;;;;;;13.48;100.00;101616.94;4864326;29;20049;-77
2023/05/23 00:20:57;;;;;;;23.73;11.55;;;;;;;13.48;100.00;101609.00;4855707;29;20060;-77
2023/05/23 00:23:28;;;;;;;24.70;11.77;;;;;;;13.49;100.00;101613.41;4848951;29;20055;-77
2023/05/23 00:25:57;;;;;;;22.17;10.93;;;;;;;13.48;100.00;101622.25;4873451;29;20541;-77
2023/05/23 00:28:25;;;;;;;28.90;10.15;;;;;;;13.48;100.00;101616.94;4833945;29;20052;-77
2023/05/23 00:30:52;;;;;;;22.58;11.25;;;;;;;13.48;100.00;101621.34;4870016;29;20130;-77
2023/05/23 00:33:21;;;;;;;20.85;11.68;;;;;;;13.48;100.00;101616.94;4854448;29;20061;-77
2023/05/23 00:35:49;;;;;;;22.60;11.63;;;;;;;13.48;100.00;101616.94;4885189;29;20052;-78
2023/05/23 00:38:16;;;;;;;29.88;13.48;;;;;;;13.49;100.00;101613.41;4860854;29;20059;-77
2023/05/23 00:40:44;;;;;;;22.73;11.90;;;;;;;13.50;100.00;101616.97;4866563;29;20048;-77
2023/05/23 00:43:12;;;;;;;24.80;13.05;;;;;;;13.48;100.00;101622.25;4828891;29;20049;-77
2023/05/23 00:45:39;;;;;;;29.45;14.55;;;;;;;13.47;100.00;101623.09;4863534;29;20434;-77
2023/05/23 00:48:10;;;;;;;26.10;15.53;;;;;;;13.44;100.00;101628.41;4884334;29;20037;-77
2023/05/23 00:50:38;;;;;;;26.35;15.18;;;;;;;13.41;100.00;101623.09;4862196;29;20047;-77
2023/05/23 00:53:06;;;;;;;31.85;15.55;;;;;;;13.37;100.00;101624.84;4855103;29;20049;-77
2023/05/23 00:55:33;;;;;;;23.48;15.00;;;;;;;13.35;100.00;101628.38;4836638;29;20048;-77
2023/05/23 00:58:01;;;;;;;29.02;15.23;;;;;;;13.30;100.00;101623.03;4861477;29;20064;-78
2023/05/23 01:00:29;;;;;;;24.38;13.98;;;;;;;13.29;100.00;101617.69;4841481;29;20057;-77
2023/05/23 01:02:57;;;;;;;30.02;14.60;;;;;;;13.27;100.00;101636.25;4852303;29;20060;-78
2023/05/23 01:05:24;;;;;;;31.35;14.60;;;;;;;13.24;100.00;101634.44;4865586;29;20060;-78
2023/05/23 01:07:53;;;;;;;25.20;14.23;;;;;;;13.22;100.00;101636.22;4846670;29;20060;-77
2023/05/23 01:10:24;;;;;;;24.73;13.85;;;;;;;13.23;100.00;101635.34;4867299;29;20057;-77
2023/05/23 01:13:12;;;;;;;24.23;13.65;;;;;;;13.24;100.00;101649.44;4852724;29;20049;-77
2023/05/23 01:16:37;;;;;;;24.30;11.82;;;;;;;13.21;100.00;101650.34;4858213;29;20049;-77
2023/05/23 01:19:42;;;;;;;20.30;11.32;;;;;;;13.22;100.00;101645.91;4803113;29;20053;-77
2023/05/23 01:22:49;;;;;;;20.42;10.82;;;;;;;13.18;100.00;101645.00;4809377;29;20061;-77
2023/05/23 01:25:27;;;;;;;22.77;11.35;;;;;;;13.16;100.00;101649.41;4861820;29;20057;-77
2023/05/23 01:27:59;;;;;;;17.30;10.25;;;;;;;13.12;100.00;101652.94;4890718;29;20045;-76
2023/05/23 01:30:31;;;;;;;19.52;10.15;;;;;;;13.09;100.00;101660.84;4821818;29;20044;-76
2023/05/23 01:33:00;;;;;;;15.77;10.15;;;;;;;13.10;100.00;101667.00;4874159;29;20052;-77
2023/05/23 01:35:28;;;;;;;16.80;9.45;;;;;;;13.09;100.00;101659.97;4869925;29;20045;-76
2023/05/23 01:37:56;;;;;;;14.60;9.60;;;;;;;13.08;100.00;101677.59;4869522;29;20056;-77
2023/05/23 01:40:24;;;;;;;16.98;8.60;;;;;;;13.05;100.00;101674.94;4851716;29;20053;-76
2023/05/23 01:42:56;;;;;;;16.35;9.10;;;;;;;13.04;100.00;101668.75;4874724;29;20048;-77
2023/05/23 01:45:26;;;;;;;18.13;9.50;;;;;;;13.01;100.00;101668.72;4810408;29;20052;-77
2023/05/23 01:47:55;;;;;;;;;;;;;;;12.99;100.00;101672.25;4871707;29;20057;-76
2023/05/23 01:50:23;;;;;;;15.40;7.85;;;;;;;12.97;100.00;101685.47;4872791;29;19930;-77
2023/05/23 01:52:52;;;;;;;15.10;7.25;;;;;;;12.94;100.00;101681.91;4877630;29;20436;-76
2023/05/23 01:55:25;;;;;;;10.50;7.05;;;;;;;12.95;100.00;101678.38;4854071;29;20520;-76
2023/05/23 01:57:55;;;;;;;13.70;7.00;;;;;;;12.96;100.00;101680.16;4871065;29;20057;-77
2023/05/23 02:00:23;;;;;;;12.23;5.65;;;;;;;12.96;100.00;101685.44;4817501;29;20045;-77
2023/05/23 02:02:51;;;;;;;13.93;6.45;;;;;;;12.97;100.00;101692.53;4843451;29;20045;-76
2023/05/23 02:05:19;;;;;;;15.50;7.20;;;;;;;12.93;100.00;101690.72;4871023;29;20061;-77
2023/05/23 02:07:46;;;;;;;14.32;6.00;;;;;;;12.91;100.00;101695.09;4863911;29;20065;-76
2023/05/23 02:10:16;;;;;;;10.48;5.88;;;;;;;12.90;100.00;101688.94;4850125;29;20091;-77
2023/05/23 02:12:44;;;;;;;16.77;6.95;;;;;;;12.87;100.00;101703.03;4879224;29;20067;-76
2023/05/23 02:15:11;;;;;;;12.93;6.32;;;;;;;12.82;100.00;101704.75;4839555;29;20092;-77
2023/05/23 02:17:40;;;;;;;14.60;5.97;;;;;;;12.80;100.00;101713.56;4874750;29;20056;-77
2023/05/23 02:20:09;;;;;;;16.45;6.55;;;;;;;12.76;100.00;101706.44;4869134;29;20426;-77
2023/05/23 02:22:37;;;;;;;16.88;6.75;;;;;;;12.69;100.00;101713.47;4862469;29;20544;-76
2023/05/23 02:25:05;;;;;;;17.08;7.28;;;;;;;12.62;100.00;101715.16;4864526;29;20391;-77
2023/05/23 02:27:32;;;;;;;21.55;7.45;;;;;;;12.57;100.00;101713.34;4856573;29;20049;-77
2023/05/23 02:30:01;;;;;;;13.10;6.60;;;;;;;12.57;100.00;101716.00;4863575;29;20064;-78
2023/05/23 02:32:31;;;;;;;15.70;7.28;;;;;;;12.56;100.00;101727.47;4836110;29;20049;-77
2023/05/23 02:35:01;;;;;;;23.50;6.75;;;;;;;12.55;100.00;101725.66;4896042;29;20059;-78
2023/05/23 02:37:31;;;;;;;20.17;7.32;;;;;;;12.51;100.00;101730.03;4885769;29;20564;-77
2023/05/23 02:40:00;;;;;;;23.08;7.57;;;;;;;12.47;100.00;101734.41;4848453;29;20570;-78
2023/05/23 02:42:27;;;;;;;18.90;7.35;;;;;;;12.45;100.00;101730.00;4874825;29;20067;-78
2023/05/23 02:44:55;;;;;;;19.20;8.07;;;;;;;12.43;100.00;101731.75;4857611;29;20155;-77
2023/05/23 02:47:23;;;;;;;17.73;6.50;;;;;;;12.43;100.00;101737.03;4814914;29;20061;-77
2023/05/23 02:49:50;;;;;;;13.90;5.90;;;;;;;12.41;100.00;101749.34;4859158;29;20059;-77
2023/05/23 02:52:18;;;;;;;13.95;5.95;;;;;;;12.36;100.00;101735.19;4855229;29;20049;-77
2023/05/23 02:54:46;;;;;;;11.07;6.00;;;;;;;12.33;100.00;101743.97;4864778;29;20064;-77
2023/05/23 02:57:13;;;;;;;14.68;6.50;;;;;;;12.30;100.00;101736.00;4859461;29;20057;-77
2023/05/23 02:59:41;;;;;;;20.25;7.18;;;;;;;12.26;100.00;101745.66;4865637;29;20052;-77
2023/05/23 03:02:08;;;;;;;19.13;7.20;;;;;;;12.19;100.00;101754.41;4839314;29;20052;-77
2023/05/23 03:04:37;;;;;;;18.00;8.35;;;;;;;12.13;100.00;101759.59;4857340;29;20064;-77
2023/05/23 03:07:10;;;;;;;20.92;6.60;;;;;;;12.06;100.00;101760.41;4858675;29;20057;-77
2023/05/23 03:09:53;;;;;;;11.65;6.05;;;;;;;12.01;100.00;101752.44;4861809;29;20067;-77
2023/05/23 03:12:21;;;;;;;9.05;5.35;;;;;;;11.99;100.00;101763.88;4854250;29;20781;-77
2023/05/23 03:14:49;;;;;;;10.77;4.47;;;;;;;11.94;100.00;101768.19;4879517;29;20056;-77
2023/05/23 03:17:16;;;;;;;9.68;4.47;;;;;;;11.89;100.00;101760.19;4841166;29;21423;-76
2023/05/23 03:19:44;;;;;;;11.10;4.82;;;;;;;11.86;100.00;101762.78;4865686;29;20079;-77
2023/05/23 03:22:11;;;;;;;10.95;4.85;;;;;;;11.82;100.00;101774.19;4855945;29;20057;-77
2023/05/23 03:24:38;;;;;;;9.88;5.07;;;;;;;11.77;100.00;101775.88;4864257;29;20044;-77
2023/05/23 03:27:06;;;;;;;14.00;5.65;;;;;;;11.75;100.00;101788.16;4852912;29;20056;-77
2023/05/23 03:29:33;;;;;;;14.48;5.88;;;;;;;11.75;100.00;101789.03;4870141;29;20056;-77
2023/05/23 03:32:01;;;;;;;15.75;6.68;;;;;;;11.75;100.00;101788.16;4843929;29;20052;-77
2023/05/23 03:34:31;;;;;;;22.23;7.20;;;;;;;11.76;100.00;101789.91;4858394;29;20049;-77
2023/05/23 03:36:59;;;;;;;18.25;6.45;;;;;;;11.72;100.00;101789.03;4892516;29;20092;-77
2023/05/23 03:39:27;;;;;;;16.23;6.20;;;;;;;11.69;100.00;101789.84;4846701;29;20176;-77
2023/05/23 03:41:57;;;;;;;13.57;6.07;;;;;;;11.70;100.00;101783.72;4884418;29;20051;-77
2023/05/23 03:44:26;;;;;;;18.37;6.13;;;;;;;11.73;100.00;101789.91;4849479;29;20057;-77
2023/05/23 03:46:54;;;;;;;18.42;6.63;;;;;;;11.70;100.00;101789.00;4870217;29;20305;-77
2023/05/23 03:49:22;;;;;;;22.00;6.65;;;;;;;11.73;100.00;101795.19;4849181;29;20049;-77
2023/05/23 03:51:50;;;;;;;16.80;6.50;;;;;;;11.73;100.00;101790.78;4867303;29;20403;-77
2023/05/23 03:54:17;;;;;;;16.70;6.78;;;;;;;11.74;100.00;101803.13;4865392;29;20064;-77
2023/05/23 03:56:45;;;;;;;18.80;6.20;;;;;;;11.74;100.00;101811.06;4853624;29;20057;-76
2023/05/23 03:59:14;;;;;;;16.55;6.47;;;;;;;11.75;100.00;101812.81;4842930;29;20058;-76
2023/05/23 04:01:42;;;;;;;16.65;5.90;;;;;;;11.76;100.00;101813.69;4858966;29;20040;-76
2023/05/23 04:04:09;;;;;;;13.00;5.55;;;;;;;11.75;100.00;101820.72;4835875;29;20060;-77
2023/05/23 04:06:37;;;;;;;16.80;5.88;;;;;;;11.76;100.00;101811.03;4833691;29;20056;-77
2023/05/23 04:09:05;;;;;;;20.63;7.00;;;;;;;11.75;100.00;101814.56;4864651;29;20059;-76
2023/05/23 04:11:37;;;;;;;19.27;6.22;;;;;;;11.74;100.00;101818.06;4878298;29;20059;-76
2023/05/23 04:14:04;;;;;;;17.05;5.68;;;;;;;11.70;100.00;101818.03;4864288;29;20060;-77
2023/05/23 04:16:32;;;;;;;15.98;5.10;;;;;;;11.67;100.00;101828.53;4854449;29;20426;-76
2023/05/23 04:19:04;;;;;;;14.93;5.00;;;;;;;11.68;100.00;101840.91;4861560;29;20049;-76
2023/05/23 04:21:35;;;;;;;15.25;5.22;;;;;;;11.65;100.00;101839.97;4831964;29;20052;-78
2023/05/23 04:24:07;;;;;;;16.13;5.15;;;;;;;11.65;100.00;101840.84;4861120;29;20049;-76
2023/05/23 04:26:36;;;;;;;15.95;4.80;;;;;;;11.64;100.00;101841.69;4858888;29;20060;-76
2023/05/23 04:29:06;;;;;;;13.10;4.22;;;;;;;11.64;100.00;101846.97;4851731;29;20056;-78
2023/05/23 04:31:34;;;;;;;15.50;5.28;;;;;;;11.65;100.00;101851.41;4860458;29;20059;-78
2023/05/23 04:34:02;;;;;;;18.08;5.45;;;;;;;11.62;100.00;101853.97;4823717;29;20590;-76
2023/05/23 04:36:32;;;;;;;;;;;;;;;11.59;100.00;101861.00;4877800;29;20064;-76
2023/05/23 04:38:59;;;;;;;19.05;4.38;;;;;;;11.59;100.00;101864.53;4861639;29;19932;-76
2023/05/23 04:41:31;;;;;;;16.90;4.88;;;;;;;11.60;100.00;101863.63;4855860;29;20045;-77
2023/05/23 04:44:13;;;;;;;18.17;5.30;;;;;;;11.62;100.00;101871.59;4854991;29;20126;-77
2023/05/23 04:47:01;;;;;;;16.27;4.43;;;;;;;11.63;100.00;101868.09;4875254;29;20056;-77
2023/05/23 04:49:42;;;;;;;15.25;4.43;;;;;;;11.63;100.00;101878.66;4806143;29;20057;-77
2023/05/23 04:52:10;;;;;;;13.38;4.13;;;;;;;11.64;100.00;101881.28;4869686;29;20066;-77
2023/05/23 04:54:43;;;;;;;14.00;4.40;;;;;;;11.65;100.00;101877.81;4854958;29;20760;-76
2023/05/23 04:57:11;;;;;;;15.95;4.10;;;;;;;11.65;100.00;101888.38;4863993;29;20053;-77
2023/05/23 04:59:38;;;;;;;14.80;4.45;;;;;;;11.65;100.00;101876.91;4864460;29;21072;-77
2023/05/23 05:02:06;;;;;;;15.70;3.78;;;;;;;11.66;100.00;101884.88;4862291;29;20064;-76
2023/05/23 05:04:35;;;;;;;18.90;4.15;;;;;;;11.66;100.00;101883.97;4822503;29;20057;-76
2023/05/23 05:07:03;;;;;;;14.52;4.03;;;;;;;11.65;100.00;101898.94;4838708;29;20048;-77
2023/05/23 05:09:30;;;;;;;17.25;3.63;;;;;;;11.61;100.00;101902.38;4850136;29;20057;-77
2023/05/23 05:11:58;;;;;;;13.23;3.88;;;;;;;11.63;100.00;101902.41;4857624;29;20048;-76
2023/05/23 05:14:26;;;;;;;26.80;5.40;;;;;;;11.62;100.00;101900.63;4872064;29;20055;-77
2023/05/23 05:16:56;;;;;;;13.93;3.92;;;;;;;11.58;100.00;101912.88;4874746;29;20049;-77
2023/05/23 05:19:30;;;;;;;19.60;5.13;;;;;;;11.54;100.00;101921.63;4852794;29;20839;-77
2023/05/23 05:21:59;;;;;;;17.10;6.18;;;;;;;11.50;100.00;101920.69;4847985;29;20041;-77
2023/05/23 05:24:26;;;;;;;19.08;6.28;;;;;;;11.46;100.00;101923.25;4847866;29;20064;-77
2023/05/23 05:26:54;;;;;;;17.83;5.80;;;;;;;11.42;100.00;101926.72;4865110;29;20060;-76
2023/05/23 05:29:23;;;;;;;20.15;6.00;;;;;;;11.35;100.00;101922.19;4852211;29;20418;-77
2023/05/23 05:31:52;;;;;;;21.75;6.45;;;;;;;11.35;100.00;101925.72;4861594;29;20064;-77
2023/05/23 05:34:20;;;;;;;14.65;6.60;;;;;;;11.31;100.00;101930.03;4866444;29;20135;-76
2023/05/23 05:36:47;;;;;;;19.35;6.65;;;;;;;11.29;100.00;101941.44;4836071;29;20099;-77
2023/05/23 05:39:17;;;;;;;15.48;7.03;;;;;;;11.24;100.00;101948.38;4854458;29;20049;-77
2023/05/23 05:41:44;;;;;;;19.77;6.22;;;;;;;11.18;100.00;101958.81;4869537;29;20499;-76
2023/05/23 05:44:13;;;;;;;15.32;5.95;;;;;;;11.12;100.00;101954.31;4867785;29;20071;-77
2023/05/23 05:46:41;;;;;;;16.73;6.35;;;;;;;11.07;100.00;101964.78;4855223;29;20053;-77
2023/05/23 05:49:08;;;;;;;12.32;5.10;;;;;;;11.00;100.00;101972.53;4827157;29;20514;-77
2023/05/23 05:51:39;;;;;;;11.45;5.45;;;;;;;10.97;100.00;101980.41;4828472;29;20051;-77
2023/05/23 05:54:06;;;;;;;15.88;5.07;;;;;;;10.96;100.00;101975.97;4867230;29;20067;-77
2023/05/23 05:56:34;;;;;;;16.13;5.40;;;;;;;10.97;100.00;101983.06;4850954;29;20041;-77
2023/05/23 05:59:01;;;;;;;12.75;4.88;;;;;;;10.96;100.00;101978.63;4874356;29;20060;-76
2023/05/23 06:01:29;;;;;;;13.35;5.18;;;;;;;10.94;100.00;101981.22;4876266;29;20479;-77
2023/05/23 06:03:58;;;;;;;18.80;5.40;;;;;;;10.92;100.00;101986.47;4850723;29;20424;-76
2023/05/23 06:06:26;;;;;;;11.90;5.13;;;;;;;10.92;100.00;101981.19;4884925;29;20417;-76
2023/05/23 06:08:54;;;;;;;12.23;4.20;;;;;;;10.95;100.00;101979.50;4844327;29;20056;-76
2023/05/23 06:11:22;;;;;;;10.43;3.88;;;;;;;10.92;100.00;101994.38;4869551;29;20055;-76
2023/05/23 06:13:50;;;;;;;13.20;3.88;;;;;;;10.95;100.00;101990.03;4855019;29;20052;-77
2023/05/23 06:16:18;;;;;;;14.82;5.22;;;;;;;10.96;100.00;102005.00;4877282;29;20541;-76
2023/05/23 06:18:45;;;;;;;10.93;3.58;;;;;;;10.98;100.00;102000.63;4871766;29;20056;-76
2023/05/23 06:21:13;;;;;;;15.73;3.83;;;;;;;11.01;100.00;102016.53;4850999;29;20441;-76
2023/05/23 06:23:40;;;;;;;17.02;4.07;;;;;;;10.99;100.00;102013.84;4838054;29;20048;-76
2023/05/23 06:26:09;;;;;;;8.90;3.42;;;;;;;10.95;100.00;102016.41;4834781;29;20902;-76
2023/05/23 06:28:40;;;;;;;10.82;4.22;;;;;;;10.93;100.00;102032.22;4872742;29;20049;-77
2023/05/23 06:31:11;;;;;;;;;;;;;;;10.86;100.00;102025.91;4847358;29;20059;-77
2023/05/23 06:33:38;;;;;;;11.70;3.33;;;;;;;10.85;100.00;102033.78;4856935;29;19943;-77
2023/05/23 06:36:05;;;;;;;17.45;4.30;;;;;;;10.85;100.00;102039.97;4854166;29;20052;-76
2023/05/23 06:38:33;;;;;;;12.38;3.42;;;;;;;10.85;100.00;102037.31;4864478;29;20056;-76
2023/05/23 06:41:05;;;;;;;13.18;4.10;;;;;;;10.87;100.00;102051.44;4811979;29;20053;-76
2023/05/23 06:43:35;;;;;;;11.60;3.30;;;;;;;10.89;100.00;102033.88;4885016;29;20091;-76
2023/05/23 06:46:29;;;;;;;16.38;3.88;;;;;;;11.01;100.00;102050.81;4865539;29;20068;-76
2023/05/23 06:48:57;;;;;;;20.55;4.00;;;;;;;11.10;100.00;102054.53;4870295;29;20048;-76
2023/05/23 06:51:41;;;;;;;21.23;4.30;;;;;;;11.15;100.00;102056.38;4846962;29;20061;-77
2023/05/23 06:54:09;;;;;;;15.13;4.10;;;;;;;11.17;100.00;102052.00;4861305;29;20041;-76
2023/05/23 06:56:37;;;;;;;20.77;4.10;;;;;;;11.16;100.00;102050.25;4839718;29;20068;-78
2023/05/23 06:59:04;;;;;;;17.25;4.88;;;;;;;11.19;100.00;102055.56;4861141;29;20049;-75
2023/05/23 07:01:32;;;;;;;11.57;4.15;;;;;;;11.27;100.00;102054.88;4851433;29;20415;-77
2023/05/23 07:04:00;;;;;;;17.67;4.95;;;;;;;11.30;100.00;102056.66;4859813;29;20058;-77
2023/05/23 07:06:30;;;;;;;19.27;4.53;;;;;;;11.30;100.00;102070.78;4870241;29;20068;-75
2023/05/23 07:08:57;;;;;;;14.85;4.45;;;;;;;11.31;100.00;102067.25;4845019;29;20060;-76
2023/05/23 07:11:26;;;;;;;22.42;4.85;;;;;;;11.30;100.00;102069.88;4833597;29;20067;-77
2023/05/23 07:13:58;;;;;;;17.65;4.65;;;;;;;11.29;100.00;102079.53;4849795;29;20063;-76
2023/05/23 07:16:38;;;;;;;20.17;3.95;;;;;;;11.25;100.00;102092.66;4848235;29;20057;-78
2023/05/23 07:19:07;;;;;;;14.98;3.67;;;;;;;11.23;100.00;102105.81;4852688;29;20116;-76
2023/05/23 07:21:42;;;;;;;17.83;4.10;;;;;;;11.24;100.00;102106.69;4866000;29;20033;-78
2023/05/23 07:24:10;;;;;;;15.18;3.65;;;;;;;11.30;100.00;102110.38;4872508;29;20502;-77
2023/05/23 07:26:38;;;;;;;15.20;3.70;;;;;;;11.32;100.00;102090.16;4837460;29;20151;-77
2023/05/23 07:29:05;;;;;;;18.67;3.80;;;;;;;11.39;100.00;102101.72;4847906;29;20048;-77
2023/05/23 07:31:33;;;;;;;18.58;5.32;;;;;;;11.37;100.00;102103.44;4863901;29;20395;-77
2023/05/23 07:34:03;;;;;;;16.10;4.00;;;;;;;11.34;100.00;102094.56;4872686;29;20060;-78
2023/05/23 07:36:39;;;;;;;15.73;3.47;;;;;;;11.33;100.00;102109.53;4847095;29;20069;-77
2023/05/23 07:39:09;;;;;;;12.40;3.60;;;;;;;11.32;100.00;102105.09;4859364;29;20055;-77
2023/05/23 07:41:37;;;;;;;19.40;3.75;;;;;;;11.31;100.00;102100.69;4857113;29;20049;-77
2023/05/23 07:44:06;;;;;;;12.07;3.58;;;;;;;11.35;100.00;102102.53;4822009;29;20067;-77
2023/05/23 07:46:33;;;;;;;16.33;3.63;;;;;;;11.43;100.00;102129.06;4859410;29;20522;-77
2023/05/23 07:49:01;;;;;;;17.92;4.28;;;;;;;11.47;100.00;102110.69;4872205;29;20817;-77
2023/05/23 07:51:29;;;;;;;16.55;3.53;;;;;;;11.60;100.00;102117.09;4847106;29;20064;-77
2023/05/23 07:53:58;;;;;;;17.48;4.20;;;;;;;11.82;100.00;102121.03;4847592;29;20063;-77
2023/05/23 07:56:26;;;;;;;15.25;3.47;;;;;;;11.94;100.00;102117.75;4870422;29;20083;-77
2023/05/23 07:58:53;;;;;;;17.13;3.65;;;;;;;11.97;100.00;102122.22;4830300;29;20055;-77
2023/05/23 08:01:21;;;;;;;14.40;3.92;;;;;;;11.99;100.00;102121.38;4869541;29;20049;-77
2023/05/23 08:04:03;;;;;;;14.80;4.22;;;;;;;12.01;100.00;102122.28;4820920;29;20060;-77
2023/05/23 08:06:36;;;;;;;18.27;3.60;;;;;;;12.05;100.00;102125.88;4857958;29;20056;-77
2023/05/23 08:09:09;;;;;;;13.18;3.72;;;;;;;12.08;100.00;102125.94;4859417;29;20052;-77
2023/05/23 08:11:41;;;;;;;12.65;3.83;;;;;;;12.16;100.00;102118.13;4862041;29;20049;-77
2023/05/23 08:14:10;;;;;;;15.25;4.05;;;;;;;12.28;100.00;102126.25;4826479;29;20048;-77
2023/05/23 08:16:37;;;;;;;17.77;4.28;;;;;;;12.37;100.00;102134.34;4860669;29;20056;-77
2023/05/23 08:19:10;;;;;;;15.35;4.63;;;;;;;12.42;100.00;102126.47;4859906;29;20515;-77
2023/05/23 08:21:38;;;;;;;13.23;3.22;;;;;;;12.43;100.00;102134.44;4871113;29;20057;-77
2023/05/23 08:24:05;;;;;;;17.13;3.78;;;;;;;12.42;100.00;102129.09;4856182;29;20067;-77
2023/05/23 08:26:35;;;;;;;27.83;5.95;;;;;;;12.42;100.00;102144.97;4844308;29;20056;-77
2023/05/23 08:29:04;;;;;;;;;;;;;;;12.36;100.00;102143.16;4828811;29;20068;-77
2023/05/23 08:31:32;;;;;;;20.10;4.22;;;;;;;12.29;100.00;102133.34;4842644;29;20051;-77
2023/05/23 08:34:03;;;;;;;15.98;3.65;;;;;;;12.27;100.00;102151.81;4870642;29;20060;-77
2023/05/23 08:36:35;;;;;;;22.17;3.58;;;;;;;12.24;100.00;102150.84;4862953;29;20059;-77
2023/05/23 08:39:04;;;;;;;18.50;4.50;;;;;;;12.25;100.00;102150.00;4861904;29;20055;-77
2023/05/23 08:41:36;;;;;;;14.43;4.88;;;;;;;12.27;100.00;102150.91;4845942;29;20303;-77
2023/05/23 08:44:08;;;;;;;14.50;3.80;;;;;;;12.34;100.00;102149.25;4833349;29;20045;-77
2023/05/23 08:46:45;;;;;;;16.58;4.20;;;;;;;12.37;100.00;102149.31;4840668;29;20530;-76
2023/05/23 08:49:22;;;;;;;14.73;3.63;;;;;;;12.45;100.00;102151.19;4838145;29;20060;-77
2023/05/23 08:51:53;;;;;;;15.32;4.43;;;;;;;12.58;100.00;102148.78;4874208;29;20087;-77
2023/05/23 08:54:21;;;;;;;15.30;3.30;;;;;;;12.64;100.00;102144.44;4868159;29;20057;-76
2023/05/23 08:56:51;;;;;;;20.42;4.68;;;;;;;12.71;100.00;102148.09;4862992;29;20079;-77
2023/05/23 08:59:19;;;;;;;21.95;4.30;;;;;;;12.83;100.00;102157.94;4842195;29;20071;-77
2023/05/23 09:01:48;;;;;;;11.52;3.30;;;;;;;12.91;100.00;102166.91;4859050;29;20075;-77
2023/05/23 09:04:16;;;;;;;16.58;3.75;;;;;;;12.91;100.00;102152.78;4907154;29;20060;-77
2023/05/23 09:07:00;;;;;;;16.73;3.70;;;;;;;12.93;100.00;102161.63;4872978;29;20392;-77
2023/05/23 09:09:31;;;;;;;24.55;4.22;;;;;;;12.92;100.00;102175.72;4841827;29;20067;-77
2023/05/23 09:12:04;;;;;;;12.82;3.15;;;;;;;12.88;100.00;102157.16;4886684;29;20048;-77
2023/05/23 09:14:32;;;;;;;16.90;3.67;;;;;;;12.88;100.00;102175.69;4802335;29;20560;-76
2023/05/23 09:17:05;;;;;;;10.73;3.42;;;;;;;12.91;100.00;102166.91;4850324;29;20052;-76
2023/05/23 09:19:32;;;;;;;12.38;3.53;;;;;;;12.96;100.00;102183.72;4860636;29;20071;-77
2023/05/23 09:22:13;;;;;;;15.30;4.10;;;;;;;13.07;100.00;102184.78;4881369;29;20447;-76
2023/05/23 09:24:57;;;;;;;12.27;3.67;;;;;;;13.11;100.00;102187.47;4875284;29;20068;-77
2023/05/23 09:27:24;;;;;;;15.02;3.95;;;;;;;13.10;100.00;102193.63;4856315;29;20063;-76
2023/05/23 09:29:52;;;;;;;18.77;4.10;;;;;;;13.07;100.00;102199.75;4854147;29;20060;-77
2023/05/23 09:32:20;;;;;;;16.33;4.05;;;;;;;13.07;100.00;102198.00;4819654;29;20091;-77
2023/05/23 09:34:55;;;;;;;18.30;3.65;;;;;;;13.04;100.00;102197.06;4863118;29;20052;-77
2023/05/23 09:37:30;;;;;;;14.40;4.07;;;;;;;13.02;100.00;102212.03;4877851;29;20060;-77
2023/05/23 09:40:00;;;;;;;17.00;3.65;;;;;;;13.04;100.00;102199.72;4853899;29;20459;-77
2023/05/23 09:42:33;;;;;;;15.57;4.07;;;;;;;13.14;100.00;102209.59;4877612;29;20059;-77
2023/05/23 09:45:03;;;;;;;17.15;3.47;;;;;;;13.24;100.00;102211.47;4865239;29;20065;-76
2023/05/23 09:47:31;;;;;;;17.70;4.35;;;;;;;13.31;100.00;102201.00;4829806;29;20053;-76
2023/05/23 09:49:59;;;;;;;16.92;3.42;;;;;;;13.33;100.00;102199.28;4886213;29;20056;-76
2023/05/23 09:52:26;;;;;;;13.60;3.83;;;;;;;13.37;100.00;102201.97;4878119;29;20064;-77
2023/05/23 09:54:54;;;;;;;12.90;2.92;;;;;;;13.50;100.00;102202.16;4865973;29;20395;-76
2023/05/23 09:57:22;;;;;;;15.35;4.35;;;;;;;13.57;100.00;102206.63;4899319;29;20059;-77
2023/05/23 09:59:53;;;;;;;19.65;3.85;;;;;;;13.60;100.00;102210.22;4860570;29;20408;-77
2023/05/23 10:02:35;;;;;;;12.80;3.67;;;;;;;13.71;100.00;102209.47;4828314;29;20049;-77
2023/05/23 10:05:06;;;;;;;14.50;3.30;;;;;;;13.84;100.00;102198.16;4875207;29;20067;-77
2023/05/23 10:07:35;;;;;;;14.00;3.60;;;;;;;13.85;100.00;102186.66;4863206;29;20066;-78
2023/05/23 10:10:04;;;;;;;16.13;3.80;;;;;;;13.82;100.00;102200.78;4866003;29;20053;-77
2023/05/23 10:12:42;;;;;;;15.85;3.60;;;;;;;13.89;100.00;102206.13;4875451;29;20055;-78
2023/05/23 10:15:13;;;;;;;17.50;4.65;;;;;;;13.91;100.00;102199.97;4867544;29;20052;-76
2023/05/23 10:17:56;;;;;;;;;;;;;;;13.82;100.00;102210.50;4832368;29;20079;-76
2023/05/23 10:20:30;;;;;;;18.85;3.83;;;;;;;13.87;100.00;102198.16;4861139;29;20296;-78
2023/05/23 10:23:00;;;;;;;13.75;3.60;;;;;;;13.79;100.00;102216.63;4858842;29;20057;-76
2023/05/23 10:25:33;;;;;;;12.63;3.45;;;;;;;13.68;100.00;102220.03;4869938;29;20056;-78
2023/05/23 10:28:01;;;;;;;13.73;3.00;;;;;;;13.64;100.00;102217.31;4875431;29;20060;-76
2023/05/23 10:30:33;;;;;;;15.32;3.78;;;;;;;13.69;100.00;102219.16;4868025;29;20059;-78
2023/05/23 10:33:02;;;;;;;13.10;3.75;;;;;;;13.73;100.00;102226.28;4820939;29;20052;-78
2023/05/23 10:36:08;;;;;;;14.82;3.38;;;;;;;13.62;100.00;102224.34;4894256;29;20060;-78
2023/05/23 10:39:01;;;;;;;16.33;3.58;;;;;;;13.65;100.00;102228.84;4878123;29;20048;-78
2023/05/23 10:41:37;;;;;;;16.00;3.92;;;;;;;13.64;100.00;102222.63;4844651;29;20056;-76
2023/05/23 10:44:11;;;;;;;14.05;3.55;;;;;;;13.73;100.00;102220.97;4837659;29;20041;-75
2023/05/23 10:47:00;;;;;;;15.60;3.33;;;;;;;13.82;100.00;102224.63;4887879;29;22000;-76
2023/05/23 10:49:40;;;;;;;14.02;3.30;;;;;;;13.84;100.00;102222.00;4823017;29;20057;-78
2023/05/23 10:52:09;;;;;;;14.02;2.50;;;;;;;13.95;100.00;102214.13;4868382;29;20059;-78
2023/05/23 10:54:50;;;;;;;9.87;2.60;;;;;;;14.12;100.00;102224.94;4877919;29;20063;-78
2023/05/23 10:57:26;;;;;;;14.45;2.80;;;;;;;14.20;100.00;102216.19;4880380;29;20482;-78
2023/05/23 10:59:54;;;;;;;13.65;3.90;;;;;;;14.18;100.00;102219.72;4871894;29;20061;-75
2023/05/23 11:02:27;;;;;;;13.02;3.60;;;;;;;14.14;100.00;102231.13;4849940;29;20056;-76
2023/05/23 11:05:22;;;;;;;19.00;3.42;;;;;;;14.06;100.00;102231.06;4856778;29;20039;-77
2023/05/23 11:08:06;;;;;;;15.02;3.33;;;;;;;14.04;100.00;102246.06;4855984;29;20064;-78
2023/05/23 11:10:59;;;;;;;16.48;3.70;;;;;;;13.91;100.00;102237.06;4880588;29;20053;-77
2023/05/23 11:13:54;;;;;;;20.75;4.15;;;;;;;13.85;100.00;102244.94;4864107;29;20394;-77
2023/05/23 11:16:31;;;;;;;18.05;4.43;;;;;;;13.78;100.00;102248.38;4879122;29;20084;-77
2023/05/23 11:19:18;;;;;;;12.73;3.60;;;;;;;13.71;100.00;102243.91;4860448;29;20045;-78
2023/05/23 11:21:52;;;;;;;21.27;3.30;;;;;;;13.61;100.00;102249.09;4847116;29;20063;-77
2023/05/23 11:24:20;;;;;;;15.18;4.28;;;;;;;13.52;100.00;102250.72;4871048;29;20048;-78
2023/05/23 11:27:02;;;;;;;19.02;3.92;;;;;;;13.62;100.00;102234.97;4874489;29;20059;-77